Météo Nord-Pas-de-Calais   La météo au plus près de chez vous

Station météorologique

Observations météo à Etoile (26124)

26124001 145 m Dernier relevé à 09:12
21.9°C
Humidité 59 % Vent 19.8 km/h

Journée consultée

Jeudi 3 Septembre 2026

Synthèse de la journée

Périodes de référence en UTC

Température maximale

21.9°C

à 09:12

06h 06h

Température minimale

19.1°C

à 06:54

18h 18h

Rafale maximale

32 km/h

à 08:36

00h 00h

Précipitations

0 mm

Cumul quotidien

06h 06h

Ensoleillement

1h 43 mins

Durée quotidienne

00h 00h

Graphiques de la journée

Heure locale Réduire

Données détaillées

Relevés météo

Pas de 6 minutes Afficher les relevés infra-horaires
Relevés météo détaillés à Etoile pour le Jeudi 3 Septembre 2026
Heure Température °C Point de rosée °C Humidité % Vent moyen (raf.), km/h Précipitations mm Température à 10 cm °C Température à 20 cm °C Ensoleillement min Rayonnement global W/m²
09:12 21.9 °C 12.2 °C 54 % 19 km/h (31 km/h) 0 mm0 mm 22.8 °C 23.1 °C 6 min 129.6 W/m²
09:06 21.7 °C 12.3 °C 55 % 22 km/h (32 km/h) 0 mm0 mm 22.8 °C 23.1 °C 6 min 123 W/m²
09:00 21.5 °C 12.1 °C 55 % 21 km/h (28 km/h) 0 mm0 mm 22.8 °C 23.2 °C 6 min 116 W/m²
08:54 21.3 °C 12.2 °C 56 % 20 km/h (29 km/h) 0 mm0 mm 22.8 °C 23.2 °C 6 min 109.1 W/m²
08:48 21.1 °C 12.2 °C 57 % 22 km/h (31 km/h) 0 mm0 mm 22.9 °C 23.2 °C 6 min 102.2 W/m²
08:42 20.8 °C 12 °C 57 % 24 km/h (32 km/h) 0 mm0 mm 22.9 °C 23.2 °C 6 min 95.2 W/m²
08:36 20.7 °C 11.9 °C 57 % 23 km/h (32 km/h) 0 mm0 mm 22.9 °C 23.2 °C 6 min 88.2 W/m²
08:30 20.7 °C 12.1 °C 58 % 21 km/h (29 km/h) 0 mm0 mm 22.9 °C 23.2 °C 6 min 81.2 W/m²
08:24 20.5 °C 11.9 °C 58 % 21 km/h (29 km/h) 0 mm0 mm 22.9 °C 23.2 °C 6 min 74.5 W/m²
08:18 20.4 °C 11.9 °C 58 % 19 km/h (29 km/h) 0 mm0 mm 22.9 °C 23.2 °C 6 min 67.5 W/m²
08:12 20.3 °C 12 °C 59 % 20 km/h (30 km/h) 0 mm0 mm 22.9 °C 23.2 °C 6 min 60.8 W/m²
08:06 20.2 °C 11.9 °C 59 % 20 km/h (30 km/h) 0 mm0 mm 22.9 °C 23.2 °C 6 min 52.9 W/m²
08:00 20.2 °C 11.9 °C 59 % 19 km/h (26 km/h) 0 mm0 mm 23 °C 23.2 °C 6 min 46 W/m²
07:54 20.1 °C 11.8 °C 59 % 19 km/h (26 km/h) 0 mm0 mm 23 °C 23.2 °C 6 min 40.2 W/m²
07:48 19.9 °C 11.9 °C 60 % 20 km/h (27 km/h) 0 mm0 mm 23 °C 23.2 °C 6 min 32.1 W/m²
07:42 20.1 °C 11.8 °C 59 % 21 km/h (26 km/h) 0 mm0 mm 23 °C 23.2 °C 6 min 26.5 W/m²
07:36 20.2 °C 11.7 °C 58 % 22 km/h (30 km/h) 0 mm0 mm 23 °C 23.3 °C 6 min 20.4 W/m²
07:30 20.3 °C 11.8 °C 58 % 21 km/h (30 km/h) 0 mm0 mm 23 °C 23.3 °C 1 min 6.2 W/m²
07:24 20 °C 11.7 °C 59 % 21 km/h (29 km/h) 0 mm0 mm 23 °C 23.3 °C 0 min 2.4 W/m²
07:18 20.1 °C 11.8 °C 59 % 21 km/h (31 km/h) 0 mm0 mm 23 °C 23.3 °C 0 min 0 W/m²
07:12 19.9 °C 11.9 °C 60 % 20 km/h (29 km/h) 0 mm0 mm 23.1 °C 23.3 °C 0 min 0 W/m²
07:06 19.5 °C 12 °C 62 % 18 km/h (26 km/h) 0 mm0 mm 23.1 °C 23.3 °C 0 min 0 W/m²
07:00 19.3 °C 12.1 °C 63 % 16 km/h (26 km/h) 0 mm0 mm 23.1 °C 23.3 °C 0 min 0 W/m²
06:54 19.1 °C 12.1 °C 64 % 14 km/h (23 km/h) 0 mm0 mm 23.1 °C 23.3 °C 0 min 0 W/m²
06:48 19.3 °C 12.1 °C 63 % 14 km/h (22 km/h) 0 mm0 mm 23.1 °C 23.3 °C 0 min 0 W/m²
06:42 19.4 °C 12.2 °C 63 % 14 km/h (22 km/h) 0 mm0 mm 23.1 °C 23.3 °C 0 min 0 W/m²
06:36 19.5 °C 12 °C 62 % 14 km/h (23 km/h) 0 mm0 mm 23.1 °C 23.3 °C 0 min 0 W/m²
06:30 19.6 °C 12.1 °C 62 % 14 km/h (23 km/h) 0 mm0 mm 23.1 °C 23.3 °C 0 min 0 W/m²
06:24 19.6 °C 12.1 °C 62 % 14 km/h (22 km/h) 0 mm0 mm 23.2 °C 23.3 °C 0 min 0 W/m²
06:18 19.6 °C 12.1 °C 62 % 14 km/h (23 km/h) 0 mm0 mm 23.2 °C 23.3 °C 0 min 0 W/m²
06:12 19.7 °C 12.2 °C 62 % 14 km/h (22 km/h) 0 mm0 mm 23.2 °C 23.3 °C 0 min 0 W/m²
06:06 19.7 °C 12.2 °C 62 % 14 km/h (24 km/h) 0 mm0 mm 23.2 °C 23.4 °C 0 min 0 W/m²
06:00 19.8 °C 12.3 °C 62 % 16 km/h (24 km/h) 0 mm0 mm 23.2 °C 23.4 °C 0 min 0 W/m²
05:54 19.8 °C 12.3 °C 62 % 15 km/h (27 km/h) 0 mm0 mm 23.2 °C 23.4 °C 0 min 0 W/m²
05:48 20 °C 12.2 °C 61 % 15 km/h (27 km/h) 0 mm0 mm 23.2 °C 23.4 °C 0 min 0 W/m²
05:42 20.1 °C 12.1 °C 60 % 15 km/h (25 km/h) 0 mm0 mm 23.2 °C 23.4 °C 0 min 0 W/m²
05:36 19.8 °C 12.1 °C 61 % 15 km/h (23 km/h) 0 mm0 mm 23.3 °C 23.4 °C 0 min 0 W/m²
05:30 19.8 °C 12.3 °C 62 % 14 km/h (22 km/h) 0 mm0 mm 23.3 °C 23.4 °C 0 min 0 W/m²
05:24 19.7 °C 12.2 °C 62 % 14 km/h (22 km/h) 0 mm0 mm 23.3 °C 23.4 °C 0 min 0 W/m²
05:18 19.6 °C 12.1 °C 62 % 13 km/h (21 km/h) 0 mm0 mm 23.3 °C 23.4 °C 0 min 0 W/m²
05:12 19.7 °C 12 °C 61 % 12 km/h (19 km/h) 0 mm0 mm 23.3 °C 23.4 °C 0 min 0 W/m²
05:06 20 °C 11.7 °C 59 % 11 km/h (17 km/h) 0 mm0 mm 23.3 °C 23.4 °C 0 min 0 W/m²
05:00 20.2 °C 11.7 °C 58 % 10 km/h (15 km/h) 0 mm0 mm 23.3 °C 23.4 °C 0 min 0 W/m²
04:54 20.6 °C 11.8 °C 57 % 10 km/h (18 km/h) 0 mm0 mm 23.3 °C 23.4 °C 0 min 0 W/m²
04:48 21 °C 11.6 °C 55 % 13 km/h (20 km/h) 0 mm0 mm 23.3 °C 23.4 °C 0 min 0 W/m²
04:42 21.2 °C 11.8 °C 55 % 14 km/h (20 km/h) 0 mm0 mm 23.4 °C 23.4 °C 0 min 0 W/m²
04:36 21.2 °C 11.8 °C 55 % 13 km/h (19 km/h) 0 mm0 mm 23.4 °C 23.4 °C 0 min 0 W/m²
04:30 21.1 °C 11.7 °C 55 % 13 km/h (19 km/h) 0 mm0 mm 23.4 °C 23.4 °C 0 min 0 W/m²
04:24 21.3 °C 11.9 °C 55 % 15 km/h (23 km/h) 0 mm0 mm 23.4 °C 23.4 °C 0 min 0 W/m²
04:18 21.3 °C 11.9 °C 55 % 14 km/h (23 km/h) 0 mm0 mm 23.4 °C 23.5 °C 0 min 0 W/m²
04:12 21.3 °C 11.9 °C 55 % 14 km/h (23 km/h) 0 mm0 mm 23.4 °C 23.5 °C 0 min 0 W/m²
04:06 21.4 °C 12 °C 55 % 14 km/h (23 km/h) 0 mm0 mm 23.4 °C 23.5 °C 0 min 0 W/m²
04:00 21.5 °C 12.1 °C 55 % 13 km/h (22 km/h) 0 mm0 mm 23.4 °C 23.5 °C 0 min 0 W/m²
03:54 21.5 °C 12.1 °C 55 % 12 km/h (19 km/h) 0 mm0 mm 23.5 °C 23.5 °C 0 min 0 W/m²
03:48 21.6 °C 11.9 °C 54 % 12 km/h (19 km/h) 0 mm0 mm 23.5 °C 23.5 °C 0 min 0 W/m²
03:42 21.9 °C 11.9 °C 53 % 14 km/h (24 km/h) 0 mm0 mm 23.5 °C 23.5 °C 0 min 0 W/m²
03:36 22 °C 12 °C 53 % 15 km/h (24 km/h) 0 mm0 mm 23.5 °C 23.5 °C 0 min 0 W/m²
03:30 22.1 °C 12.1 °C 53 % 15 km/h (21 km/h) 0 mm0 mm 23.5 °C 23.5 °C 0 min 0 W/m²
03:24 22.1 °C 12.1 °C 53 % 15 km/h (22 km/h) 0 mm0 mm 23.5 °C 23.5 °C 0 min 0 W/m²
03:18 22.2 °C 12.2 °C 53 % 16 km/h (29 km/h) 0 mm0 mm 23.5 °C 23.5 °C 0 min 0 W/m²
03:12 22.4 °C 12.1 °C 52 % 17 km/h (29 km/h) 0 mm0 mm 23.6 °C 23.5 °C 0 min 0 W/m²
03:06 22.4 °C 12.3 °C 53 % 17 km/h (26 km/h) 0 mm0 mm 23.6 °C 23.5 °C 0 min 0 W/m²
03:00 22.5 °C 12.4 °C 53 % 18 km/h (26 km/h) 0 mm0 mm 23.6 °C 23.5 °C 0 min 0 W/m²
02:54 22.4 °C 12.3 °C 53 % 18 km/h (28 km/h) 0 mm0 mm 23.6 °C 23.5 °C 0 min 0 W/m²
02:48 22.6 °C 12.2 °C 52 % 19 km/h (28 km/h) 0 mm0 mm 23.6 °C 23.5 °C 0 min 0 W/m²
02:42 22.6 °C 12.2 °C 52 % 18 km/h (26 km/h) 0 mm0 mm 23.6 °C 23.5 °C 0 min 0 W/m²
02:36 22.8 °C 12.4 °C 52 % 18 km/h (30 km/h) 0 mm0 mm 23.6 °C 23.5 °C 0 min 0 W/m²
02:30 22.9 °C 12.5 °C 52 % 20 km/h (30 km/h) 0 mm0 mm 23.6 °C 23.6 °C 0 min 0 W/m²
02:24 22.9 °C 12.5 °C 52 % 20 km/h (29 km/h) 0 mm0 mm 23.7 °C 23.6 °C 0 min 0 W/m²
02:18 22.9 °C 12.5 °C 52 % 19 km/h (26 km/h) 0 mm0 mm 23.7 °C 23.6 °C 0 min 0 W/m²
02:12 23 °C 12.6 °C 52 % 19 km/h (26 km/h) 0 mm0 mm 23.7 °C 23.6 °C 0 min 0 W/m²
02:06 23.1 °C 12.4 °C 51 % 20 km/h (26 km/h) 0 mm0 mm 23.7 °C 23.6 °C 0 min 0 W/m²
02:00 23.1 °C 12.4 °C 51 % 19 km/h (28 km/h) 0 mm0 mm 23.7 °C 23.6 °C 0 min 0 W/m²
01:54 23.1 °C 12.4 °C 51 % 19 km/h (27 km/h) 0 mm0 mm 23.7 °C 23.6 °C 0 min 0 W/m²
01:48 23.1 °C 12.4 °C 51 % 18 km/h (25 km/h) 0 mm0 mm 23.7 °C 23.6 °C 0 min 0 W/m²
01:42 23.1 °C 12.4 °C 51 % 17 km/h (24 km/h) 0 mm0 mm 23.7 °C 23.6 °C 0 min 0 W/m²
01:36 23.2 °C 12.5 °C 51 % 16 km/h (24 km/h) 0 mm0 mm 23.7 °C 23.6 °C 0 min 0 W/m²
01:30 23.2 °C 12.5 °C 51 % 15 km/h (23 km/h) 0 mm0 mm 23.8 °C 23.6 °C 0 min 0 W/m²
01:24 23.1 °C 12.7 °C 52 % 14 km/h (21 km/h) 0 mm0 mm 23.8 °C 23.6 °C 0 min 0 W/m²
01:18 23 °C 12.6 °C 52 % 14 km/h (21 km/h) 0 mm0 mm 23.8 °C 23.6 °C 0 min 0 W/m²
01:12 23 °C 12.6 °C 52 % 14 km/h (20 km/h) 0 mm0 mm 23.8 °C 23.6 °C 0 min 0 W/m²
01:06 23.1 °C 12.7 °C 52 % 15 km/h (20 km/h) 0 mm0 mm 23.8 °C 23.6 °C 0 min 0 W/m²
01:00 23.2 °C 12.8 °C 52 % 13 km/h (20 km/h) 0 mm0 mm 23.8 °C 23.6 °C 0 min 0 W/m²
00:54 23.2 °C 12.8 °C 52 % 13 km/h (18 km/h) 0 mm0 mm 23.8 °C 23.6 °C 0 min 0 W/m²
00:48 23.2 °C 12.5 °C 51 % 13 km/h (18 km/h) 0 mm0 mm 23.8 °C 23.6 °C 0 min 0 W/m²
00:42 23.2 °C 12.5 °C 51 % 13 km/h (22 km/h) 0 mm0 mm 23.8 °C 23.6 °C 0 min 0 W/m²
00:36 23.2 °C 12.8 °C 52 % 12 km/h (18 km/h) 0 mm0 mm 23.9 °C 23.6 °C 0 min 0 W/m²
00:30 23.1 °C 12.7 °C 52 % 11 km/h (19 km/h) 0 mm0 mm 23.9 °C 23.6 °C 0 min 0 W/m²
00:24 23.2 °C 12.8 °C 52 % 11 km/h (18 km/h) 0 mm0 mm 23.9 °C 23.6 °C 0 min 0 W/m²
00:18 23.7 °C 12.7 °C 50 % 14 km/h (21 km/h) 0 mm0 mm 23.9 °C 23.6 °C 0 min 0 W/m²
00:12 23.7 °C 12.7 °C 50 % 14 km/h (21 km/h) 0 mm0 mm 23.9 °C 23.6 °C 0 min 0 W/m²
00:06 23.7 °C 12.7 °C 50 % 15 km/h (24 km/h) 0 mm0 mm 23.9 °C 23.6 °C 0 min 0 W/m²
00:00 23.9 °C 12.5 °C 49 % 16 km/h (24 km/h) 0 mm0 mm 23.9 °C 23.6 °C 0 min 0 W/m²

Données via Météo-France

Relevés météo à Etoile

Cette page rassemble les observations de la station de Etoile : température, humidité, vent, précipitations et pression atmosphérique. Les graphiques facilitent le suivi de la journée, tandis que le tableau donne accès aux mesures horaires et infra-horaires disponibles.

Pour replacer ces mesures dans leur contexte, consultez la climatologie de Etoile ainsi que ses normales et records. Retrouvez aussi la carte des observations météo en temps réel.